createdAt,value
2018-06-17T00:00:18.743Z,25.03
2018-06-17T00:01:28.199Z,25.05
2018-06-17T00:02:37.683Z,25.06
2018-06-17T00:03:47.363Z,24.99
2018-06-17T00:04:56.626Z,25
2018-06-17T00:06:06.395Z,24.99
2018-06-17T00:07:15.335Z,24.99
2018-06-17T00:08:24.798Z,25
2018-06-17T00:09:33.961Z,25
2018-06-17T00:10:43.172Z,25.02
2018-06-17T00:11:53.167Z,25.05
2018-06-17T00:13:02.859Z,25.06
2018-06-17T00:14:12.041Z,25.05
2018-06-17T00:15:21.492Z,25.1
2018-06-17T00:16:30.397Z,25.08
2018-06-17T00:17:40.409Z,25.05
2018-06-17T00:18:50.124Z,25.02
2018-06-17T00:19:59.095Z,25
2018-06-17T00:21:08.297Z,25.06
2018-06-17T00:22:17.206Z,25
2018-06-17T00:23:26.400Z,24.99
2018-06-17T00:24:35.987Z,25.09
2018-06-17T00:25:45.157Z,25.06
2018-06-17T00:26:54.098Z,25.05
2018-06-17T00:28:03.276Z,25
2018-06-17T00:29:12.267Z,24.99
2018-06-17T00:30:21.715Z,25.06
2018-06-17T00:31:31.143Z,25.02
2018-06-17T00:32:40.843Z,25.06
2018-06-17T00:33:50.529Z,25.06
2018-06-17T00:34:59.989Z,24.95
2018-06-17T00:36:09.677Z,24.98
2018-06-17T00:37:19.105Z,25.02
2018-06-17T00:38:29.909Z,25.05
2018-06-17T00:39:39.660Z,25.05
2018-06-17T00:40:49.149Z,25.05
2018-06-17T00:41:58.632Z,25.06
2018-06-17T00:43:08.060Z,24.95
2018-06-17T00:44:17.768Z,25.06
2018-06-17T00:45:26.916Z,25.06
2018-06-17T00:46:36.599Z,25.05
2018-06-17T00:47:46.285Z,25.08
2018-06-17T00:48:55.717Z,24.99
2018-06-17T00:50:05.404Z,25.06
2018-06-17T00:51:14.890Z,25.03
2018-06-17T00:52:24.351Z,25.03
2018-06-17T00:53:33.571Z,24.98
2018-06-17T00:54:42.790Z,25.08
2018-06-17T00:55:52.004Z,25.08
2018-06-17T00:57:01.448Z,25.06
2018-06-17T00:58:10.913Z,24.98
2018-06-17T00:59:20.341Z,25
2018-06-17T01:00:29.791Z,25
2018-06-17T01:01:39.733Z,25.02
2018-06-17T01:02:49.433Z,25.05
2018-06-17T01:03:58.656Z,24.96
2018-06-17T01:05:08.064Z,25.05
2018-06-17T01:06:17.570Z,25.03
2018-06-17T01:07:27.306Z,24.96
2018-06-17T01:08:36.988Z,24.98
2018-06-17T01:09:46.162Z,25.06
2018-06-17T01:10:55.587Z,25.09
2018-06-17T01:12:04.528Z,25.06
2018-06-17T01:13:13.977Z,24.96
2018-06-17T01:14:23.654Z,25.03
2018-06-17T01:15:32.598Z,24.95
2018-06-17T01:16:42.313Z,24.98
2018-06-17T01:17:51.538Z,25.02
2018-06-17T01:19:01.281Z,25.06
2018-06-17T01:20:10.721Z,25.03
2018-06-17T01:21:20.158Z,24.99
2018-06-17T01:22:29.077Z,25.08
2018-06-17T01:23:38.312Z,25.02
2018-06-17T01:24:47.800Z,24.99
2018-06-17T01:25:57.244Z,25.05
2018-06-17T01:27:06.430Z,25
2018-06-17T01:28:16.196Z,25.05
2018-06-17T01:29:25.632Z,25.06
2018-06-17T01:30:35.362Z,25.03
2018-06-17T01:31:45.340Z,24.98
2018-06-17T01:32:54.769Z,25.02
2018-06-17T01:34:04.500Z,25.02
2018-06-17T01:35:13.958Z,25.03
2018-06-17T01:36:23.121Z,25
2018-06-17T01:37:32.630Z,24.96
2018-06-17T01:38:41.779Z,24.99
2018-06-17T01:39:51.201Z,24.96
2018-06-17T01:41:00.607Z,24.98
2018-06-17T01:42:09.778Z,25.06
2018-06-17T01:43:19.207Z,24.98
2018-06-17T01:44:28.636Z,24.96
2018-06-17T01:45:37.859Z,25.06
2018-06-17T01:46:47.333Z,24.98
2018-06-17T01:47:57.024Z,24.93
2018-06-17T01:49:06.193Z,24.99
2018-06-17T01:50:15.616Z,24.98
2018-06-17T01:51:25.351Z,24.95
2018-06-17T01:52:34.852Z,25.03
2018-06-17T01:53:44.260Z,24.99
2018-06-17T01:54:53.439Z,25.03
2018-06-17T01:56:02.402Z,24.95
2018-06-17T01:57:11.620Z,24.99
2018-06-17T01:58:21.329Z,24.99
2018-06-17T01:59:31.270Z,24.99
2018-06-17T02:00:40.704Z,24.96
2018-06-17T02:01:50.123Z,24.96
2018-06-17T02:02:59.301Z,25.05
2018-06-17T02:04:08.753Z,24.99
2018-06-17T02:05:18.182Z,25.02
2018-06-17T02:06:27.612Z,25.05
2018-06-17T02:07:36.569Z,24.95
2018-06-17T02:08:46.262Z,24.98
2018-06-17T02:09:55.479Z,25.05
2018-06-17T02:11:04.905Z,24.96
2018-06-17T02:12:13.823Z,24.93
2018-06-17T02:13:23.256Z,24.98
2018-06-17T02:14:32.427Z,25.02
2018-06-17T02:15:41.882Z,25
2018-06-17T02:16:51.564Z,24.96
2018-06-17T02:18:01.065Z,24.99
2018-06-17T02:19:09.742Z,25
2018-06-17T02:20:19.204Z,25
2018-06-17T02:21:28.378Z,25.02
2018-06-17T02:22:37.801Z,24.95
2018-06-17T02:23:47.490Z,24.98
2018-06-17T02:24:56.935Z,24.98
2018-06-17T02:26:06.398Z,24.93
2018-06-17T02:27:15.841Z,24.99
2018-06-17T02:28:25.045Z,24.98
2018-06-17T02:29:34.491Z,24.98
2018-06-17T02:30:44.222Z,25
2018-06-17T02:31:53.688Z,24.99
2018-06-17T02:33:02.608Z,24.96
2018-06-17T02:34:12.032Z,25.02
2018-06-17T02:35:21.992Z,24.91
2018-06-17T02:36:31.421Z,24.91
2018-06-17T02:37:40.867Z,24.93
2018-06-17T02:38:50.326Z,24.95
2018-06-17T02:40:00.032Z,24.99
2018-06-17T02:41:10.053Z,24.95
2018-06-17T02:42:19.244Z,24.99
2018-06-17T02:43:28.938Z,25
2018-06-17T02:44:38.660Z,24.96
2018-06-17T02:45:48.109Z,25.02
2018-06-17T02:46:57.807Z,25
2018-06-17T02:48:07.514Z,24.95
2018-06-17T02:49:17.203Z,24.95
2018-06-17T02:50:26.959Z,24.98
2018-06-17T02:51:36.663Z,24.95
2018-06-17T02:52:46.352Z,24.93
2018-06-17T02:53:56.049Z,25.02
2018-06-17T02:55:05.250Z,25
2018-06-17T02:56:14.698Z,24.95
2018-06-17T02:57:24.400Z,24.91
2018-06-17T02:58:33.830Z,25.02
2018-06-17T02:59:43.514Z,25
2018-06-17T03:00:53.210Z,24.96
2018-06-17T03:02:03.170Z,25
2018-06-17T03:03:12.873Z,24.99
2018-06-17T03:04:22.326Z,24.9
2018-06-17T03:05:32.051Z,24.9
2018-06-17T03:06:41.574Z,24.95
2018-06-17T03:07:51.273Z,24.96
2018-06-17T03:09:00.455Z,24.87
2018-06-17T03:10:09.876Z,24.98
2018-06-17T03:11:19.336Z,24.96
2018-06-17T03:12:28.529Z,24.96
2018-06-17T03:13:38.218Z,25
2018-06-17T03:14:48.186Z,24.9
2018-06-17T03:15:57.608Z,25
2018-06-17T03:17:06.800Z,24.91
2018-06-17T03:18:16.491Z,24.93
2018-06-17T03:19:25.675Z,25
2018-06-17T03:20:35.363Z,24.96
2018-06-17T03:21:45.308Z,24.9
2018-06-17T03:22:54.224Z,25
2018-06-17T03:24:03.143Z,25
2018-06-17T03:25:12.817Z,24.95
2018-06-17T03:26:21.996Z,24.96
2018-06-17T03:27:31.680Z,24.96
2018-06-17T03:28:41.139Z,25
2018-06-17T03:29:50.297Z,24.96
2018-06-17T03:30:59.743Z,24.96
2018-06-17T03:32:08.716Z,24.98
2018-06-17T03:33:18.387Z,24.98
2018-06-17T03:34:27.321Z,24.99
2018-06-17T03:35:36.729Z,25
2018-06-17T03:36:46.155Z,24.9
2018-06-17T03:37:55.314Z,24.98
2018-06-17T03:39:04.500Z,24.95
2018-06-17T03:40:14.185Z,24.93
2018-06-17T03:41:23.888Z,24.93
2018-06-17T03:42:33.322Z,24.96
2018-06-17T03:43:42.754Z,24.91
2018-06-17T03:44:51.690Z,24.96
2018-06-17T03:46:01.358Z,24.98
2018-06-17T03:47:10.521Z,24.91
2018-06-17T03:48:20.227Z,25
2018-06-17T03:49:29.402Z,24.99
2018-06-17T03:50:38.879Z,24.96
2018-06-17T03:51:48.308Z,24.99
2018-06-17T03:52:57.780Z,24.95
2018-06-17T03:54:07.194Z,24.9
2018-06-17T03:55:16.914Z,25.03
2018-06-17T03:56:26.349Z,24.95
2018-06-17T03:57:35.771Z,24.95
2018-06-17T03:58:44.928Z,24.96
2018-06-17T03:59:54.628Z,24.95
2018-06-17T04:01:04.054Z,25
2018-06-17T04:02:13.493Z,24.96
2018-06-17T04:03:22.671Z,24.93
2018-06-17T04:04:32.609Z,24.99
2018-06-17T04:05:42.574Z,24.98
2018-06-17T04:06:51.490Z,24.91
2018-06-17T04:08:01.184Z,24.95
2018-06-17T04:09:10.341Z,24.9
2018-06-17T04:10:20.193Z,24.93
2018-06-17T04:11:29.480Z,24.95
2018-06-17T04:12:38.920Z,24.99
2018-06-17T04:13:47.872Z,24.99
2018-06-17T04:14:57.316Z,24.98
2018-06-17T04:16:06.703Z,25
2018-06-17T04:17:16.402Z,24.99
2018-06-17T04:18:25.845Z,24.88
2018-06-17T04:19:35.271Z,24.93
2018-06-17T04:20:44.701Z,24.93
2018-06-17T04:21:54.135Z,24.93
2018-06-17T04:23:03.322Z,24.87
2018-06-17T04:24:13.003Z,24.93
2018-06-17T04:25:22.616Z,24.9
2018-06-17T04:26:32.499Z,24.87
2018-06-17T04:27:41.925Z,24.91
2018-06-17T04:28:51.103Z,24.91
2018-06-17T04:30:00.574Z,24.9
2018-06-17T04:31:09.745Z,24.96
2018-06-17T04:32:19.163Z,24.96
2018-06-17T04:33:28.579Z,24.96
2018-06-17T04:34:37.776Z,24.96
2018-06-17T04:35:47.726Z,24.93
2018-06-17T04:36:56.894Z,24.96
2018-06-17T04:38:05.784Z,24.93
2018-06-17T04:39:15.206Z,24.93
2018-06-17T04:40:24.616Z,24.95
2018-06-17T04:41:34.546Z,24.96
2018-06-17T04:42:43.454Z,24.96
2018-06-17T04:43:52.629Z,24.9
2018-06-17T04:45:01.557Z,24.87
2018-06-17T04:46:10.716Z,24.99
2018-06-17T04:47:19.635Z,24.95
2018-06-17T04:48:29.431Z,24.95
2018-06-17T04:49:38.915Z,24.87
2018-06-17T04:50:48.588Z,24.93
2018-06-17T04:51:58.024Z,24.96
2018-06-17T04:53:07.701Z,24.98
2018-06-17T04:54:17.392Z,24.95
2018-06-17T04:55:27.093Z,24.96
2018-06-17T04:56:36.515Z,24.91
2018-06-17T04:57:46.200Z,24.95
2018-06-17T04:58:55.630Z,24.95
2018-06-17T05:00:05.592Z,24.96
2018-06-17T05:01:15.349Z,24.9
2018-06-17T05:02:24.016Z,24.95
2018-06-17T05:03:33.703Z,24.91
2018-06-17T05:04:42.873Z,25.02
2018-06-17T05:05:52.824Z,24.99
2018-06-17T05:07:02.246Z,24.95
2018-06-17T05:08:11.921Z,24.95
2018-06-17T05:09:21.628Z,24.96
2018-06-17T05:10:30.544Z,24.96
2018-06-17T05:11:39.720Z,24.9
2018-06-17T05:12:48.914Z,24.95
2018-06-17T05:13:58.341Z,24.96
2018-06-17T05:15:07.537Z,24.98
2018-06-17T05:16:16.440Z,24.91
2018-06-17T05:17:26.403Z,24.96
2018-06-17T05:18:35.321Z,24.96
2018-06-17T05:19:44.994Z,24.93
2018-06-17T05:20:54.415Z,24.95
2018-06-17T05:22:03.601Z,24.96
2018-06-17T05:23:12.773Z,24.98
2018-06-17T05:24:21.720Z,24.88
2018-06-17T05:25:31.408Z,24.95
2018-06-17T05:26:40.828Z,24.91
2018-06-17T05:27:50.516Z,24.95
2018-06-17T05:28:59.944Z,24.98
2018-06-17T05:30:09.688Z,24.93
2018-06-17T05:31:19.365Z,24.9
2018-06-17T05:32:29.333Z,24.95
2018-06-17T05:33:38.578Z,24.95
2018-06-17T05:34:48.104Z,24.96
2018-06-17T05:35:57.794Z,24.88
2018-06-17T05:37:06.989Z,24.99
2018-06-17T05:38:16.442Z,24.95
2018-06-17T05:39:26.475Z,24.95
2018-06-17T05:40:36.156Z,24.95
2018-06-17T05:41:45.854Z,24.99
2018-06-17T05:42:55.558Z,24.93
2018-06-17T05:44:04.990Z,24.98
2018-06-17T05:45:13.658Z,24.93
2018-06-17T05:46:23.354Z,24.9
2018-06-17T05:47:32.290Z,24.95
2018-06-17T05:48:42.058Z,24.95
2018-06-17T05:49:51.245Z,25
2018-06-17T05:51:00.712Z,24.98
2018-06-17T05:52:09.920Z,25
2018-06-17T05:53:18.828Z,25
2018-06-17T05:54:28.260Z,24.96
2018-06-17T05:55:38.160Z,25
2018-06-17T05:56:47.606Z,24.91
2018-06-17T05:57:57.098Z,24.96
2018-06-17T05:59:06.542Z,24.95
2018-06-17T06:00:16.358Z,24.98
2018-06-17T06:01:25.795Z,24.98
2018-06-17T06:02:35.221Z,24.96
2018-06-17T06:03:44.907Z,25
2018-06-17T06:04:54.338Z,24.95
2018-06-17T06:06:03.275Z,24.95
2018-06-17T06:07:12.698Z,24.91
2018-06-17T06:08:21.370Z,24.9
2018-06-17T06:09:30.556Z,24.95
2018-06-17T06:10:39.752Z,24.93
2018-06-17T06:11:48.929Z,24.99
2018-06-17T06:12:57.835Z,24.99
2018-06-17T06:14:07.090Z,24.98
2018-06-17T06:15:16.014Z,24.95
2018-06-17T06:16:25.465Z,24.98
2018-06-17T06:17:34.902Z,24.95
2018-06-17T06:18:44.570Z,24.91
2018-06-17T06:19:53.486Z,25
2018-06-17T06:21:02.407Z,24.9
2018-06-17T06:22:12.365Z,24.93
2018-06-17T06:23:21.781Z,24.96
2018-06-17T06:24:30.693Z,25
2018-06-17T06:25:39.862Z,25.02
2018-06-17T06:26:49.543Z,24.93
2018-06-17T06:27:59.489Z,24.96
2018-06-17T06:29:08.918Z,25
2018-06-17T06:30:18.104Z,24.98
2018-06-17T06:31:27.003Z,24.98
2018-06-17T06:32:36.968Z,25
2018-06-17T06:33:46.389Z,25.05
2018-06-17T06:34:55.847Z,25
2018-06-17T06:36:05.537Z,25
2018-06-17T06:37:15.069Z,24.95
2018-06-17T06:38:24.652Z,25.02
2018-06-17T06:39:34.083Z,25.03
2018-06-17T06:40:43.795Z,25
2018-06-17T06:41:53.218Z,24.9
2018-06-17T06:43:02.712Z,24.99
2018-06-17T06:44:11.882Z,25
2018-06-17T06:45:21.317Z,24.9
2018-06-17T06:46:30.455Z,24.96
2018-06-17T06:47:39.878Z,25
2018-06-17T06:48:49.335Z,25.05
2018-06-17T06:49:59.099Z,25
2018-06-17T06:51:09.437Z,25
2018-06-17T06:52:18.952Z,24.93
2018-06-17T06:53:28.373Z,24.96
2018-06-17T06:54:37.535Z,25.03
2018-06-17T06:55:46.726Z,25.03
2018-06-17T06:56:56.155Z,24.98
2018-06-17T06:58:05.940Z,24.96
2018-06-17T06:59:15.362Z,24.88
2018-06-17T07:00:24.272Z,24.99
2018-06-17T07:01:33.705Z,25
2018-06-17T07:02:43.157Z,25.02
2018-06-17T07:03:52.653Z,24.96
2018-06-17T07:05:01.594Z,24.91
2018-06-17T07:06:11.580Z,25.09
2018-06-17T07:07:21.315Z,24.95
2018-06-17T07:08:30.519Z,24.96
2018-06-17T07:09:39.952Z,24.96
2018-06-17T07:10:49.138Z,24.95
2018-06-17T07:11:58.310Z,24.96
2018-06-17T07:13:07.300Z,25
2018-06-17T07:14:16.229Z,24.96
2018-06-17T07:15:25.450Z,24.98
2018-06-17T07:16:34.900Z,25.02
2018-06-17T07:17:44.083Z,24.95
2018-06-17T07:18:53.516Z,24.96
2018-06-17T07:20:03.205Z,24.95
2018-06-17T07:21:12.895Z,25.06
2018-06-17T07:22:22.583Z,25.02
2018-06-17T07:23:32.034Z,24.95
2018-06-17T07:24:40.943Z,25
2018-06-17T07:25:50.110Z,25
2018-06-17T07:26:59.803Z,25
2018-06-17T07:28:09.494Z,25.02
2018-06-17T07:29:18.914Z,25
2018-06-17T07:30:28.097Z,25.02
2018-06-17T07:31:37.257Z,25.03
2018-06-17T07:32:46.500Z,24.99
2018-06-17T07:33:56.475Z,24.98
2018-06-17T07:35:05.935Z,24.98
2018-06-17T07:36:15.665Z,25.02
2018-06-17T07:37:25.092Z,24.96
2018-06-17T07:38:34.263Z,24.99
2018-06-17T07:39:43.181Z,24.95
2018-06-17T07:40:52.610Z,25.02
2018-06-17T07:42:02.054Z,25.02
2018-06-17T07:43:10.718Z,25.02
2018-06-17T07:44:19.892Z,24.96
2018-06-17T07:45:29.310Z,24.99
2018-06-17T07:46:39.006Z,24.95
2018-06-17T07:47:48.207Z,24.93
2018-06-17T07:48:57.118Z,24.93
2018-06-17T07:50:06.570Z,25.08
2018-06-17T07:51:15.725Z,24.99
2018-06-17T07:52:25.149Z,24.98
2018-06-17T07:53:34.340Z,24.99
2018-06-17T07:54:44.038Z,25.02
2018-06-17T07:55:53.230Z,24.96
2018-06-17T07:57:03.018Z,25.02
2018-06-17T07:58:12.545Z,24.96
2018-06-17T07:59:22.099Z,24.98
2018-06-17T08:00:31.572Z,25
2018-06-17T08:01:40.739Z,24.96
2018-06-17T08:02:50.193Z,24.93
2018-06-17T08:03:59.414Z,25
2018-06-17T08:05:08.579Z,25.09
2018-06-17T08:06:17.290Z,24.96
2018-06-17T08:07:27.249Z,25.03
2018-06-17T08:08:36.953Z,24.96
2018-06-17T08:09:46.377Z,24.98
2018-06-17T08:10:56.071Z,24.95
2018-06-17T08:12:05.686Z,24.99
2018-06-17T08:13:14.353Z,24.98
2018-06-17T08:14:23.773Z,25.02
2018-06-17T08:15:33.717Z,25.02
2018-06-17T08:16:43.206Z,25.03
2018-06-17T08:17:52.383Z,25.02
2018-06-17T08:19:01.858Z,24.95
2018-06-17T08:20:11.104Z,24.99
2018-06-17T08:21:21.359Z,24.96
2018-06-17T08:22:31.051Z,24.98
2018-06-17T08:23:40.729Z,24.95
2018-06-17T08:24:50.162Z,24.98
2018-06-17T08:25:59.635Z,24.95
2018-06-17T08:27:09.315Z,25
2018-06-17T08:28:18.749Z,25.06
2018-06-17T08:29:27.918Z,25.06
2018-06-17T08:30:37.118Z,24.96
2018-06-17T08:31:46.804Z,25.05
2018-06-17T08:32:56.488Z,24.99
2018-06-17T08:34:05.939Z,24.93
2018-06-17T08:35:15.119Z,25.09
2018-06-17T08:36:24.303Z,25.06
2018-06-17T08:37:33.742Z,24.95
2018-06-17T08:38:43.168Z,25.05
2018-06-17T08:39:52.924Z,24.99
2018-06-17T08:41:02.343Z,24.96
2018-06-17T08:42:11.523Z,25.05
2018-06-17T08:43:20.442Z,25.03
2018-06-17T08:44:29.790Z,24.96
2018-06-17T08:45:39.804Z,24.96
2018-06-17T08:46:49.368Z,25
2018-06-17T08:47:58.995Z,25
2018-06-17T08:49:07.912Z,25.03
2018-06-17T08:50:17.342Z,25.06
2018-06-17T08:51:27.054Z,25
2018-06-17T08:52:36.487Z,25.03
2018-06-17T08:53:45.928Z,25.02
2018-06-17T08:54:55.118Z,25.06
2018-06-17T08:56:04.580Z,25.05
2018-06-17T08:57:14.019Z,25.08
2018-06-17T08:58:22.953Z,25.09
2018-06-17T08:59:32.417Z,25.06
2018-06-17T09:00:41.085Z,25.08
2018-06-17T09:01:50.819Z,25.03
2018-06-17T09:02:59.999Z,25.03
2018-06-17T09:04:09.167Z,25.06
2018-06-17T09:05:18.873Z,25.09
2018-06-17T09:06:28.593Z,24.98
2018-06-17T09:07:37.758Z,25.06
2018-06-17T09:08:46.717Z,25.08
2018-06-17T09:09:55.897Z,25.02
2018-06-17T09:11:04.838Z,25.03
2018-06-17T09:12:14.267Z,24.99
2018-06-17T09:13:23.511Z,25.06
2018-06-17T09:14:32.426Z,25.03
2018-06-17T09:15:41.860Z,25.05
2018-06-17T09:16:51.570Z,24.99
2018-06-17T09:18:01.015Z,24.98
2018-06-17T09:19:10.709Z,24.99
2018-06-17T09:20:20.488Z,25.03
2018-06-17T09:21:29.957Z,25.02
2018-06-17T09:22:39.370Z,24.99
2018-06-17T09:23:48.807Z,25.06
2018-06-17T09:24:58.251Z,25.03
2018-06-17T09:26:07.674Z,25.06
2018-06-17T09:27:17.362Z,24.98
2018-06-17T09:28:26.795Z,25
2018-06-17T09:29:36.544Z,25.1
2018-06-17T09:30:45.996Z,25.1
2018-06-17T09:31:55.857Z,25.06
2018-06-17T09:33:05.700Z,25.06
2018-06-17T09:34:14.927Z,25.03
2018-06-17T09:35:24.096Z,25.06
2018-06-17T09:36:33.525Z,25.06
2018-06-17T09:37:42.701Z,25.03
2018-06-17T09:38:52.123Z,25.05
2018-06-17T09:40:01.552Z,25.05
2018-06-17T09:41:11.058Z,25.1
2018-06-17T09:42:21.016Z,25.03
2018-06-17T09:43:30.703Z,25.06
2018-06-17T09:44:39.874Z,25.09
2018-06-17T09:45:49.334Z,25
2018-06-17T09:46:58.558Z,25.05
2018-06-17T09:48:07.694Z,25.08
2018-06-17T09:49:17.157Z,25.08
2018-06-17T09:50:26.083Z,25.09
2018-06-17T09:51:35.522Z,24.95
2018-06-17T09:52:44.697Z,25.05
2018-06-17T09:53:53.875Z,25.03
2018-06-17T09:55:03.326Z,25.06
2018-06-17T09:56:13.068Z,25.06
2018-06-17T09:57:22.799Z,25.08
2018-06-17T09:58:32.439Z,25.02
2018-06-17T09:59:41.442Z,25.03
2018-06-17T10:00:50.613Z,25.08
2018-06-17T10:01:59.810Z,25.08
2018-06-17T10:03:08.772Z,25.08
2018-06-17T10:04:18.708Z,25.06
2018-06-17T10:05:28.140Z,25.09
2018-06-17T10:06:37.052Z,25.05
2018-06-17T10:07:46.469Z,25
2018-06-17T10:08:56.227Z,25.09
2018-06-17T10:10:05.992Z,25.03
2018-06-17T10:11:15.700Z,25.09
2018-06-17T10:12:25.404Z,25.05
2018-06-17T10:13:34.830Z,25.06
2018-06-17T10:14:43.780Z,25.08
2018-06-17T10:15:53.255Z,25.08
2018-06-17T10:17:02.821Z,25.03
2018-06-17T10:18:12.766Z,25.09
2018-06-17T10:19:21.682Z,25.02
2018-06-17T10:20:31.113Z,25.05
2018-06-17T10:21:40.576Z,25.09
2018-06-17T10:22:49.997Z,25.03
2018-06-17T10:23:59.681Z,25.15
2018-06-17T10:25:08.857Z,25.09
2018-06-17T10:26:17.767Z,25.08
2018-06-17T10:27:27.679Z,25.13
2018-06-17T10:28:37.115Z,25.13
2018-06-17T10:29:46.285Z,25.09
2018-06-17T10:30:55.713Z,25.05
2018-06-17T10:32:05.457Z,25.14
2018-06-17T10:33:14.872Z,25.09
2018-06-17T10:34:24.378Z,25.03
2018-06-17T10:35:33.552Z,25.05
2018-06-17T10:36:43.511Z,25.06
2018-06-17T10:37:52.972Z,25.13
2018-06-17T10:39:02.643Z,25.13
2018-06-17T10:40:11.289Z,25.08
2018-06-17T10:41:20.745Z,25.05
2018-06-17T10:42:30.174Z,25.09
2018-06-17T10:43:40.111Z,25.08
2018-06-17T10:44:49.542Z,25.08
2018-06-17T10:45:59.252Z,25.15
2018-06-17T10:47:08.683Z,25.09
2018-06-17T10:48:17.847Z,25.06
2018-06-17T10:49:27.765Z,25.06
2018-06-17T10:50:37.618Z,25.14
2018-06-17T10:51:47.158Z,25.06
2018-06-17T10:52:56.084Z,25.1
2018-06-17T10:54:05.525Z,25.13
2018-06-17T10:55:14.712Z,25.05
2018-06-17T10:56:23.899Z,25.1
2018-06-17T10:57:33.326Z,25.15
2018-06-17T10:58:42.759Z,25.13
2018-06-17T10:59:52.208Z,25.05
2018-06-17T11:01:01.644Z,25.09
2018-06-17T11:02:10.298Z,25.14
2018-06-17T11:03:19.993Z,25.15
2018-06-17T11:04:29.676Z,25.05
2018-06-17T11:05:39.785Z,25.09
2018-06-17T11:06:49.830Z,25.08
2018-06-17T11:07:59.523Z,25.06
2018-06-17T11:09:08.433Z,25.13
2018-06-17T11:10:17.619Z,25.1
2018-06-17T11:11:27.052Z,25.06
2018-06-17T11:12:36.479Z,25.06
2018-06-17T11:13:45.658Z,25.14
2018-06-17T11:14:54.821Z,25.08
2018-06-17T11:16:04.244Z,25.14
2018-06-17T11:17:13.161Z,25.06
2018-06-17T11:18:22.599Z,25.06
2018-06-17T11:19:31.776Z,25.08
2018-06-17T11:20:41.632Z,25.15
2018-06-17T11:21:51.315Z,25.08
2018-06-17T11:23:00.486Z,25.08
2018-06-17T11:24:09.654Z,25.05
2018-06-17T11:25:19.346Z,25.09
2018-06-17T11:26:29.057Z,25.06
2018-06-17T11:27:38.859Z,25.09
2018-06-17T11:28:48.322Z,25.08
2018-06-17T11:29:57.484Z,25.08
2018-06-17T11:31:06.656Z,25.15
2018-06-17T11:32:16.125Z,25.05
2018-06-17T11:33:25.638Z,25.08
2018-06-17T11:34:35.422Z,25.05
2018-06-17T11:35:45.123Z,25.06
2018-06-17T11:36:54.286Z,25.08
2018-06-17T11:38:03.734Z,25.03
2018-06-17T11:39:13.584Z,25.06
2018-06-17T11:40:22.645Z,25.15
2018-06-17T11:41:32.070Z,25.08
2018-06-17T11:42:41.481Z,25.08
2018-06-17T11:43:50.386Z,25.06
2018-06-17T11:44:59.302Z,25.1
2018-06-17T11:46:08.756Z,25.13
2018-06-17T11:47:18.476Z,25.1
2018-06-17T11:48:27.914Z,25.14
2018-06-17T11:49:37.160Z,25.06
2018-06-17T11:50:46.400Z,25.13
2018-06-17T11:51:56.101Z,25.09
2018-06-17T11:53:05.548Z,25.13
2018-06-17T11:54:15.011Z,25.08
2018-06-17T11:55:24.451Z,25.13
2018-06-17T11:56:33.393Z,25.08
2018-06-17T11:57:43.085Z,25.06
2018-06-17T11:58:52.815Z,25.09
2018-06-17T12:00:02.572Z,25.05
2018-06-17T12:01:12.258Z,25.15
2018-06-17T12:02:20.960Z,25.13
2018-06-17T12:03:30.182Z,25.14
2018-06-17T12:04:39.637Z,25.08
2018-06-17T12:05:49.084Z,25.08
2018-06-17T12:06:58.587Z,25.1
2018-06-17T12:08:08.019Z,25.1
2018-06-17T12:09:17.505Z,25.09
2018-06-17T12:10:27.200Z,25.08
2018-06-17T12:11:36.644Z,25.09
2018-06-17T12:12:45.627Z,25.09
2018-06-17T12:13:54.868Z,25.14
2018-06-17T12:15:04.035Z,25.1
2018-06-17T12:16:13.459Z,25.06
2018-06-17T12:17:23.151Z,25.06
2018-06-17T12:18:32.647Z,25.08
2018-06-17T12:19:41.829Z,25.13
2018-06-17T12:20:51.015Z,25.13
2018-06-17T12:22:00.672Z,25.1
2018-06-17T12:23:10.381Z,25.05
2018-06-17T12:24:19.583Z,25.09
2018-06-17T12:25:28.924Z,25.06
2018-06-17T12:26:39.041Z,25.06
2018-06-17T12:27:48.475Z,25.08
2018-06-17T12:28:57.900Z,25.09
2018-06-17T12:30:06.551Z,25.1
2018-06-17T12:31:15.979Z,25.13
2018-06-17T12:32:25.164Z,25.09
2018-06-17T12:33:35.140Z,25.13
2018-06-17T12:34:44.936Z,25.06
2018-06-17T12:35:54.123Z,25.1
2018-06-17T12:37:03.792Z,25.06
2018-06-17T12:38:13.491Z,25.14
2018-06-17T12:39:22.644Z,25.14
2018-06-17T12:40:32.337Z,25.1
2018-06-17T12:41:42.024Z,25.09
2018-06-17T12:42:50.943Z,25.06
2018-06-17T12:44:00.371Z,25.09
2018-06-17T12:45:09.789Z,25.13
2018-06-17T12:46:19.522Z,25.05
2018-06-17T12:47:29.210Z,25.06
2018-06-17T12:48:38.379Z,25.06
2018-06-17T12:49:47.807Z,25.06
2018-06-17T12:50:56.720Z,25.06
2018-06-17T12:52:05.931Z,25.05
2018-06-17T12:53:15.399Z,25.05
2018-06-17T12:54:24.819Z,25.03
2018-06-17T12:55:33.724Z,25.05
2018-06-17T12:56:42.894Z,25.13
2018-06-17T12:57:52.424Z,25.08
2018-06-17T12:59:01.879Z,25.15
2018-06-17T13:00:10.775Z,25.02
2018-06-17T13:01:19.967Z,25.08
2018-06-17T13:02:29.158Z,25.1
2018-06-17T13:03:38.069Z,25.08
2018-06-17T13:04:47.908Z,25.06
2018-06-17T13:05:57.335Z,25.09
2018-06-17T13:07:06.296Z,25.13
2018-06-17T13:08:16.238Z,25.02
2018-06-17T13:09:25.398Z,25.09
2018-06-17T13:10:34.622Z,25.06
2018-06-17T13:11:43.518Z,25.09
2018-06-17T13:12:52.732Z,25.13
2018-06-17T13:14:02.569Z,25.06
2018-06-17T13:15:11.778Z,25.08
2018-06-17T13:16:21.491Z,25.1
2018-06-17T13:17:30.689Z,25.05
2018-06-17T13:18:40.628Z,25.13
2018-06-17T13:19:50.088Z,25.08
2018-06-17T13:20:59.820Z,25.05
2018-06-17T13:22:08.733Z,25.05
2018-06-17T13:23:17.889Z,25.09
2018-06-17T13:24:27.327Z,25.08
2018-06-17T13:25:36.498Z,25.05
2018-06-17T13:26:45.686Z,25.08
2018-06-17T13:27:54.944Z,25.14
2018-06-17T13:29:03.845Z,25.06
2018-06-17T13:30:13.280Z,25.08
2018-06-17T13:31:22.698Z,25.14
2018-06-17T13:32:31.699Z,25.08
2018-06-17T13:33:41.118Z,25.03
2018-06-17T13:34:50.530Z,25.08
2018-06-17T13:35:59.690Z,25.17
2018-06-17T13:37:09.113Z,25.15
2018-06-17T13:38:18.267Z,25.13
2018-06-17T13:39:27.209Z,25.2
2018-06-17T13:40:36.667Z,25.13
2018-06-17T13:41:46.349Z,25.2
2018-06-17T13:42:56.287Z,25.15
2018-06-17T13:44:05.708Z,25.13
2018-06-17T13:45:14.912Z,25.17
2018-06-17T13:46:24.337Z,25.14
2018-06-17T13:47:33.533Z,25.13
2018-06-17T13:48:42.733Z,25.1
2018-06-17T13:49:51.902Z,25.14
2018-06-17T13:51:00.824Z,25.17
2018-06-17T13:52:10.248Z,25.14
2018-06-17T13:53:19.418Z,25.08
2018-06-17T13:54:28.878Z,25.17
2018-06-17T13:55:38.559Z,25.17
2018-06-17T13:56:47.732Z,25.13
2018-06-17T13:57:56.936Z,25.17
2018-06-17T13:59:06.115Z,25.15
2018-06-17T14:00:15.809Z,25.17
2018-06-17T14:01:25.025Z,25.14
2018-06-17T14:02:33.939Z,25.09
2018-06-17T14:03:43.376Z,25.13
2018-06-17T14:04:52.843Z,25.13
2018-06-17T14:06:02.303Z,25.09
2018-06-17T14:07:12.233Z,25.17
2018-06-17T14:08:21.928Z,25.14
2018-06-17T14:09:31.099Z,25.15
2018-06-17T14:10:40.529Z,25.14
2018-06-17T14:11:49.956Z,25.13
2018-06-17T14:12:59.125Z,25.17
2018-06-17T14:14:08.550Z,25.2
2018-06-17T14:15:17.992Z,25.14
2018-06-17T14:16:27.429Z,25.13
2018-06-17T14:17:37.126Z,25.1
2018-06-17T14:18:46.302Z,25.14
2018-06-17T14:19:56.033Z,25.17
2018-06-17T14:21:05.993Z,25.15
2018-06-17T14:22:15.676Z,25.18
2018-06-17T14:23:24.830Z,25.09
2018-06-17T14:24:34.276Z,25.14
2018-06-17T14:25:44.074Z,25.13
2018-06-17T14:26:53.387Z,25.15
2018-06-17T14:28:02.571Z,25.14
2018-06-17T14:29:11.728Z,25.1
2018-06-17T14:30:20.903Z,25.14
2018-06-17T14:31:30.584Z,25.13
2018-06-17T14:32:39.764Z,25.15
2018-06-17T14:33:49.455Z,25.09
2018-06-17T14:34:58.352Z,25.14
2018-06-17T14:36:07.304Z,25.13
2018-06-17T14:37:16.221Z,25.14
2018-06-17T14:38:25.640Z,25.2
2018-06-17T14:39:34.569Z,25.21
2018-06-17T14:40:43.727Z,25.15
2018-06-17T14:41:53.411Z,25.08
2018-06-17T14:43:02.320Z,25.13
2018-06-17T14:44:11.731Z,25.13
2018-06-17T14:45:21.235Z,25.17
2018-06-17T14:46:30.915Z,25.2
2018-06-17T14:47:40.629Z,25.15
2018-06-17T14:48:49.546Z,25.1
2018-06-17T14:49:59.276Z,25.15
2018-06-17T14:51:08.554Z,25.17
2018-06-17T14:52:18.049Z,25.18
2018-06-17T14:53:27.496Z,25.15
2018-06-17T14:54:36.414Z,25.09
2018-06-17T14:55:45.842Z,25.13
2018-06-17T14:56:54.781Z,25.17
2018-06-17T14:58:04.478Z,25.13
2018-06-17T14:59:14.153Z,25.13
2018-06-17T15:00:23.593Z,25.09
2018-06-17T15:01:33.267Z,25.09